Holiday City, Ohio
Current Conditions -  °F | °C
As of 5:55 PM on Tuesday 27 Jan 2015 (Local Time) from KJYM Reporting Station
Clear Clear  
Wind Chill: 22°   Ceiling: Unl
Heat Index: 22°   Visibility: 10mi
Dew Point: 11°   Wind: 0mph
Humidity: 61%   Direction: NA
Pressure: 30.14"   Gusts: NA
Location:  41.6146°N, 84.6314°W
Report Text: KJYM 272255Z AUTO 00000KT 10SM CLR M05/M12 A3014 RMK AO2 T10531118
Loading
Personal Weather Stations






























Interactive Weather Map New forecast layout! Learn more

10-Day Weather Forecast

Advertisements
Track Severe Weather on mobile